createdAt,value
2023-05-19T00:00:30.990Z,45.00
2023-05-19T00:03:03.298Z,45.03
2023-05-19T00:05:34.518Z,45.30
2023-05-19T00:08:04.745Z,45.12
2023-05-19T00:10:35.676Z,45.28
2023-05-19T00:13:06.193Z,45.56
2023-05-19T00:15:37.621Z,45.56
2023-05-19T00:18:09.043Z,45.40
2023-05-19T00:20:39.403Z,45.78
2023-05-19T00:23:10.421Z,45.72
2023-05-19T00:25:40.784Z,45.86
2023-05-19T00:28:11.752Z,45.89
2023-05-19T00:30:41.784Z,46.03
2023-05-19T00:33:11.941Z,46.21
2023-05-19T00:35:41.964Z,46.40
2023-05-19T00:38:11.935Z,46.42
2023-05-19T00:40:41.948Z,46.72
2023-05-19T00:43:12.471Z,46.75
2023-05-19T00:45:42.983Z,45.87
2023-05-19T00:48:13.099Z,45.74
2023-05-19T00:50:43.047Z,46.44
2023-05-19T00:53:13.358Z,46.00
2023-05-19T00:55:43.314Z,47.74
2023-05-19T00:58:14.111Z,48.22
2023-05-19T01:00:44.419Z,49.05
2023-05-19T01:03:15.255Z,49.47
2023-05-19T01:05:45.452Z,49.85
2023-05-19T01:08:16.335Z,49.07
2023-05-19T01:10:46.731Z,49.13
2023-05-19T01:13:16.844Z,49.74
2023-05-19T01:15:56.678Z,50.00
2023-05-19T01:18:32.374Z,49.30
2023-05-19T01:21:10.734Z,49.11
2023-05-19T01:23:43.250Z,48.96
2023-05-19T01:26:20.526Z,48.91
2023-05-19T01:29:12.652Z,48.73
2023-05-19T01:31:42.675Z,48.69
2023-05-19T01:34:12.851Z,48.63
2023-05-19T01:36:44.890Z,48.58
2023-05-19T01:39:16.462Z,48.60
2023-05-19T01:41:46.610Z,48.58
2023-05-19T01:44:16.606Z,48.66
2023-05-19T01:46:47.677Z,48.54
2023-05-19T01:49:17.783Z,48.49
2023-05-19T01:51:48.963Z,48.40
2023-05-19T01:54:19.199Z,48.66
2023-05-19T01:56:52.943Z,48.66
2023-05-19T01:59:32.298Z,48.67
2023-05-19T02:02:02.420Z,48.76
2023-05-19T02:04:39.927Z,48.61
2023-05-19T02:07:15.751Z,48.55
2023-05-19T02:09:52.185Z,48.49
2023-05-19T02:12:26.034Z,48.38
2023-05-19T02:14:58.872Z,48.49
2023-05-19T02:17:29.429Z,48.45
2023-05-19T02:19:59.419Z,48.50
2023-05-19T02:22:29.368Z,48.77
2023-05-19T02:24:59.291Z,48.95
2023-05-19T02:27:32.691Z,49.24
2023-05-19T02:30:02.880Z,49.54
2023-05-19T02:32:34.403Z,49.62
2023-05-19T02:35:05.935Z,49.85
2023-05-19T02:37:37.971Z,49.68
2023-05-19T02:40:09.908Z,49.54
2023-05-19T02:42:39.923Z,49.51
2023-05-19T02:45:11.104Z,49.87
2023-05-19T02:47:44.304Z,50.19
2023-05-19T02:50:14.870Z,50.05
2023-05-19T02:52:45.451Z,49.76
2023-05-19T02:55:17.310Z,49.39
2023-05-19T02:57:47.590Z,49.33
2023-05-19T03:00:18.362Z,49.30
2023-05-19T03:02:48.831Z,49.42
2023-05-19T03:05:20.128Z,49.53
2023-05-19T03:07:50.476Z,50.07
2023-05-19T03:10:20.708Z,50.31
2023-05-19T03:12:50.955Z,50.00
2023-05-19T03:15:23.311Z,50.40
2023-05-19T03:17:53.646Z,50.77
2023-05-19T03:20:24.586Z,50.76
2023-05-19T03:22:54.578Z,50.89
2023-05-19T03:25:24.806Z,51.05
2023-05-19T03:27:54.881Z,51.16
2023-05-19T03:30:26.220Z,50.86
2023-05-19T03:33:07.536Z,50.57
2023-05-19T03:35:37.794Z,50.60
2023-05-19T03:38:08.360Z,50.60
2023-05-19T03:40:38.763Z,50.57
2023-05-19T03:43:11.437Z,50.61
2023-05-19T03:45:47.486Z,50.53
2023-05-19T03:48:38.586Z,50.45
2023-05-19T03:51:30.132Z,50.47
2023-05-19T03:54:06.465Z,50.30
2023-05-19T03:56:39.956Z,50.31
2023-05-19T03:59:12.355Z,50.39
2023-05-19T04:01:42.365Z,50.48
2023-05-19T04:04:12.547Z,50.84
2023-05-19T04:06:42.555Z,51.12
2023-05-19T04:09:14.811Z,51.45
2023-05-19T04:11:44.953Z,51.55
2023-05-19T04:14:16.108Z,51.34
2023-05-19T04:16:46.518Z,51.35
2023-05-19T04:19:16.654Z,51.47
2023-05-19T04:21:47.054Z,51.52
2023-05-19T04:24:16.959Z,51.60
2023-05-19T04:26:47.852Z,52.07
2023-05-19T04:29:19.100Z,52.22
2023-05-19T04:31:49.572Z,52.16
2023-05-19T04:34:20.579Z,52.21
2023-05-19T04:36:53.242Z,52.40
2023-05-19T04:39:24.145Z,52.52
2023-05-19T04:41:54.541Z,52.43
2023-05-19T04:44:24.667Z,52.34
2023-05-19T04:46:57.860Z,52.52
2023-05-19T04:49:29.144Z,53.01
2023-05-19T04:51:59.349Z,52.90
2023-05-19T04:54:31.072Z,53.17
2023-05-19T05:10:16.956Z,53.13
2023-05-19T05:12:48.846Z,53.02
2023-05-19T05:15:20.831Z,53.33
2023-05-19T05:17:52.991Z,53.10
2023-05-19T05:20:25.240Z,53.18
2023-05-19T05:22:57.732Z,53.13
2023-05-19T05:25:30.051Z,53.23
2023-05-19T05:28:05.453Z,53.45
2023-05-19T05:30:36.313Z,53.61
2023-05-19T05:33:07.833Z,53.55
2023-05-19T05:35:40.853Z,53.62
2023-05-19T05:38:12.042Z,53.43
2023-05-19T05:40:42.147Z,53.63
2023-05-19T05:43:12.647Z,53.62
2023-05-19T05:45:48.226Z,53.80
2023-05-19T05:48:20.141Z,53.62
2023-05-19T05:50:50.852Z,53.74
2023-05-19T05:53:24.719Z,53.48
2023-05-19T05:55:58.630Z,53.52
2023-05-19T05:58:32.823Z,53.62
2023-05-19T06:07:37.675Z,53.89
2023-05-19T06:10:10.260Z,54.20
2023-05-19T06:12:42.576Z,54.13
2023-05-19T06:15:12.806Z,54.23
2023-05-19T06:17:52.836Z,54.50
2023-05-19T06:20:23.090Z,54.20
2023-05-19T06:22:54.188Z,54.27
2023-05-19T06:25:24.808Z,54.33
2023-05-19T06:27:54.812Z,54.35
2023-05-19T06:30:25.149Z,54.36
2023-05-19T06:33:21.783Z,54.53
2023-05-19T06:35:52.308Z,54.45
2023-05-19T06:38:23.414Z,54.47
2023-05-19T06:40:53.928Z,54.47
2023-05-19T06:43:25.961Z,54.54
2023-05-19T06:45:58.077Z,54.73
2023-05-19T06:48:28.941Z,55.03
2023-05-19T06:50:59.153Z,54.72
2023-05-19T06:53:31.127Z,55.01
2023-05-19T06:56:01.628Z,54.94
2023-05-19T06:58:34.990Z,54.92
2023-05-19T07:01:06.629Z,55.02
2023-05-19T07:03:42.288Z,54.58
2023-05-19T07:06:13.320Z,54.68
2023-05-19T07:08:44.173Z,55.33
2023-05-19T07:11:14.648Z,55.67
2023-05-19T07:13:45.112Z,56.20
2023-05-19T07:16:15.548Z,56.14
2023-05-19T07:18:45.923Z,56.09
2023-05-19T07:21:15.992Z,56.01
2023-05-19T07:23:46.365Z,55.99
2023-05-19T07:26:16.548Z,56.03
2023-05-19T07:28:46.601Z,56.13
2023-05-19T07:31:16.816Z,55.89
2023-05-19T07:33:46.908Z,55.66
2023-05-19T07:36:17.103Z,55.77
2023-05-19T07:38:47.244Z,55.83
2023-05-19T07:41:17.278Z,55.69
2023-05-19T07:43:47.404Z,55.49
2023-05-19T07:46:17.429Z,55.43
2023-05-19T07:48:47.491Z,55.40
2023-05-19T07:51:17.600Z,55.51
2023-05-19T07:53:47.552Z,55.60
2023-05-19T07:56:17.556Z,55.71
2023-05-19T07:58:47.686Z,55.27
2023-05-19T08:01:17.584Z,55.11
2023-05-19T08:03:47.733Z,55.03
2023-05-19T08:06:18.003Z,54.87
2023-05-19T08:08:47.934Z,54.71
2023-05-19T08:11:17.846Z,54.30
2023-05-19T08:13:49.312Z,54.26
2023-05-19T08:16:19.277Z,54.08
2023-05-19T08:18:49.296Z,53.91
2023-05-19T08:21:19.579Z,53.71
2023-05-19T08:23:49.995Z,53.32
2023-05-19T08:26:19.985Z,53.35
2023-05-19T08:28:49.914Z,52.95
2023-05-19T08:31:20.374Z,53.08
2023-05-19T08:33:50.667Z,52.98
2023-05-19T08:36:22.065Z,52.91
2023-05-19T08:38:52.217Z,52.61
2023-05-19T08:41:23.356Z,52.40
2023-05-19T08:43:53.317Z,52.26
2023-05-19T08:46:24.081Z,51.90
2023-05-19T08:48:55.397Z,51.50
2023-05-19T08:51:31.332Z,51.11
2023-05-19T08:54:04.692Z,50.79
2023-05-19T08:56:34.988Z,50.75
2023-05-19T08:59:04.988Z,49.96
2023-05-19T09:04:07.642Z,50.42
2023-05-19T09:06:41.115Z,49.85
2023-05-19T09:09:11.130Z,49.73
2023-05-19T09:11:41.617Z,49.55
2023-05-19T09:14:11.613Z,49.10
2023-05-19T09:16:41.585Z,48.60
2023-05-19T09:19:17.741Z,47.87
2023-05-19T09:21:50.150Z,47.24
2023-05-19T09:24:20.184Z,45.83
2023-05-19T09:26:50.362Z,44.58
2023-05-19T09:29:20.412Z,44.62
2023-05-19T09:31:51.203Z,44.71
2023-05-19T09:34:22.262Z,44.77
2023-05-19T09:36:53.561Z,44.96
2023-05-19T09:39:25.237Z,43.75
2023-05-19T09:41:55.334Z,43.92
2023-05-19T09:44:29.480Z,44.05
2023-05-19T09:47:00.204Z,43.41
2023-05-19T09:49:32.704Z,42.97
2023-05-19T09:52:04.406Z,43.17
2023-05-19T09:54:35.539Z,43.15
2023-05-19T09:57:08.582Z,43.10
2023-05-19T09:59:39.938Z,41.62
2023-05-19T10:02:12.319Z,41.49
2023-05-19T10:04:42.507Z,40.02
2023-05-19T10:07:12.638Z,40.38
2023-05-19T10:09:42.945Z,40.54
2023-05-19T10:12:13.204Z,40.40
2023-05-19T10:14:43.276Z,40.15
2023-05-19T10:17:13.287Z,39.56
2023-05-19T10:19:43.548Z,39.65
2023-05-19T10:22:13.797Z,39.24
2023-05-19T10:24:43.710Z,39.47
2023-05-19T10:27:14.640Z,39.32
2023-05-19T10:29:47.680Z,39.31
2023-05-19T10:32:19.958Z,39.85
2023-05-19T10:35:09.370Z,40.03
2023-05-19T10:37:45.256Z,40.48
2023-05-19T10:40:20.304Z,40.84
2023-05-19T10:43:11.779Z,40.84
2023-05-19T10:45:45.389Z,40.80
2023-05-19T10:48:17.288Z,40.68
2023-05-19T10:50:49.529Z,39.82
2023-05-19T10:53:22.127Z,39.62
2023-05-19T10:55:53.860Z,39.88
2023-05-19T11:27:34.506Z,42.18
2023-05-19T11:30:14.615Z,41.96
2023-05-19T11:32:44.644Z,42.04
2023-05-19T11:35:15.719Z,42.15
2023-05-19T11:37:46.289Z,41.80
2023-05-19T11:40:16.437Z,41.23
2023-05-19T11:42:47.126Z,41.38
2023-05-19T11:45:17.608Z,41.49
2023-05-19T11:48:01.223Z,41.33
2023-05-19T11:50:32.128Z,41.42
2023-05-19T11:53:03.049Z,41.32
2023-05-19T11:55:33.686Z,41.23
2023-05-19T11:58:05.605Z,41.18
2023-05-19T12:00:39.227Z,41.40
2023-05-19T12:03:09.899Z,41.08
2023-05-19T12:05:44.681Z,41.36
2023-05-19T12:08:15.029Z,41.62
2023-05-19T12:10:47.655Z,41.47
2023-05-19T12:13:18.015Z,41.24
2023-05-19T12:15:49.380Z,40.85
2023-05-19T12:18:19.632Z,41.25
2023-05-19T12:20:49.627Z,41.00
2023-05-19T12:23:20.031Z,40.94
2023-05-19T12:25:50.757Z,41.04
2023-05-19T12:28:21.072Z,41.22
2023-05-19T12:30:52.307Z,41.40
2023-05-19T12:33:24.420Z,41.38
2023-05-19T12:35:55.660Z,41.57
2023-05-19T12:38:25.675Z,41.57
2023-05-19T12:40:55.998Z,41.80
2023-05-19T12:43:27.013Z,42.35
2023-05-19T12:45:58.580Z,42.48
2023-05-19T12:48:28.609Z,42.27
2023-05-19T12:50:58.672Z,42.12
2023-05-19T12:53:29.646Z,42.60
2023-05-19T12:55:59.706Z,42.68
2023-05-19T12:58:34.054Z,42.43
2023-05-19T13:01:04.727Z,42.17
2023-05-19T13:03:39.567Z,41.95
2023-05-19T13:06:10.464Z,41.71
2023-05-19T13:08:41.268Z,41.44
2023-05-19T13:11:11.566Z,41.50
2023-05-19T13:13:41.674Z,41.39
2023-05-19T13:16:11.625Z,41.48
2023-05-19T13:18:42.994Z,41.19
2023-05-19T13:21:13.534Z,41.00
2023-05-19T13:23:43.409Z,40.51
2023-05-19T13:26:14.351Z,40.73
2023-05-19T13:28:44.264Z,40.80
2023-05-19T13:31:14.308Z,40.59
2023-05-19T13:33:44.200Z,40.47
2023-05-19T13:36:16.426Z,40.38
2023-05-19T13:38:46.614Z,40.11
2023-05-19T13:41:18.338Z,39.37
2023-05-19T13:43:48.321Z,39.39
2023-05-19T13:46:19.299Z,39.09
2023-05-19T13:48:52.093Z,39.50
2023-05-19T13:51:22.056Z,39.29
2023-05-19T13:53:52.387Z,39.74
2023-05-19T13:56:22.610Z,39.77
2023-05-19T13:58:54.739Z,39.74
2023-05-19T14:01:24.828Z,39.81
2023-05-19T14:03:55.071Z,39.76
2023-05-19T14:06:25.151Z,38.92
2023-05-19T14:08:55.177Z,39.06
2023-05-19T14:11:25.092Z,39.15
2023-05-19T14:13:55.003Z,39.49
2023-05-19T14:16:26.498Z,39.51
2023-05-19T14:18:56.682Z,39.51
2023-05-19T14:21:26.858Z,39.76
2023-05-19T14:23:57.015Z,40.02
2023-05-19T14:26:29.160Z,40.12
2023-05-19T14:28:59.533Z,40.60
2023-05-19T14:31:29.512Z,40.85
2023-05-19T14:33:59.464Z,41.35
2023-05-19T14:36:29.853Z,41.60
2023-05-19T14:38:59.959Z,41.93
2023-05-19T14:41:30.143Z,41.93
2023-05-19T14:44:00.048Z,42.34
2023-05-19T14:46:30.014Z,42.63
2023-05-19T14:49:00.663Z,43.45
2023-05-19T14:51:31.622Z,43.88
2023-05-19T14:54:02.329Z,43.99
2023-05-19T14:56:32.767Z,44.35
2023-05-19T14:59:04.447Z,45.16
2023-05-19T15:01:34.406Z,45.00
2023-05-19T15:04:04.548Z,46.07
2023-05-19T15:06:34.778Z,47.02
2023-05-19T15:09:05.052Z,47.26
2023-05-19T15:11:35.460Z,48.85
2023-05-19T15:14:05.649Z,49.29
2023-05-19T15:16:36.870Z,49.90
2023-05-19T15:19:07.068Z,49.55
2023-05-19T15:21:38.349Z,49.80
2023-05-19T15:24:08.820Z,49.55
2023-05-19T15:26:38.776Z,49.23
2023-05-19T15:29:08.656Z,49.99
2023-05-19T15:31:38.760Z,49.89
2023-05-19T15:34:09.158Z,49.79
2023-05-19T15:36:39.190Z,49.89
2023-05-19T15:39:09.816Z,50.64
2023-05-19T15:41:39.784Z,50.40
2023-05-19T15:44:09.719Z,50.50
2023-05-19T15:46:42.704Z,50.09
2023-05-19T15:49:17.926Z,50.24
2023-05-19T15:51:48.056Z,50.08
2023-05-19T15:54:18.006Z,49.83
2023-05-19T15:56:47.989Z,49.49
2023-05-19T15:59:17.959Z,49.13
2023-05-19T16:01:49.052Z,49.08
2023-05-19T16:04:19.684Z,48.87
2023-05-19T16:06:50.313Z,48.80
2023-05-19T16:09:20.520Z,48.86
2023-05-19T16:11:51.329Z,48.82
2023-05-19T16:14:21.245Z,48.99
2023-05-19T16:16:51.461Z,49.68
2023-05-19T16:19:23.663Z,50.21
2023-05-19T16:21:54.021Z,50.03
2023-05-19T16:24:24.076Z,50.89
2023-05-19T16:26:54.279Z,50.47
2023-05-19T16:29:24.381Z,50.58
2023-05-19T16:31:54.414Z,50.65
2023-05-19T16:34:24.650Z,51.12
2023-05-19T16:36:54.553Z,51.10
2023-05-19T16:39:24.474Z,51.17
2023-05-19T16:41:54.679Z,51.49
2023-05-19T16:44:25.767Z,51.53
2023-05-19T16:46:56.030Z,51.59
2023-05-19T16:49:25.936Z,51.88
2023-05-19T16:51:57.107Z,51.93
2023-05-19T16:54:27.193Z,51.89
2023-05-19T16:56:57.376Z,51.95
2023-05-19T16:59:27.636Z,51.97
2023-05-19T17:01:57.631Z,52.02
2023-05-19T17:04:30.028Z,52.01
2023-05-19T17:07:00.763Z,52.40
2023-05-19T17:09:31.339Z,52.60
2023-05-19T17:12:01.312Z,52.35
2023-05-19T17:14:31.756Z,52.49
2023-05-19T17:17:02.031Z,52.49
2023-05-19T17:19:32.527Z,52.59
2023-05-19T17:22:04.781Z,52.66
2023-05-19T17:24:35.917Z,52.84
2023-05-19T17:27:06.592Z,52.82
2023-05-19T17:29:37.060Z,52.98
2023-05-19T17:32:07.891Z,52.85
2023-05-19T17:34:39.273Z,52.87
2023-05-19T17:37:09.273Z,52.95
2023-05-19T17:39:39.392Z,52.91
2023-05-19T17:42:12.002Z,52.86
2023-05-19T17:44:41.922Z,52.98
2023-05-19T17:47:11.788Z,52.97
2023-05-19T17:49:42.319Z,53.01
2023-05-19T17:52:13.686Z,53.01
2023-05-19T17:54:44.382Z,53.21
2023-05-19T17:57:14.728Z,53.15
2023-05-19T17:59:45.579Z,53.23
2023-05-19T18:02:19.267Z,53.25
2023-05-19T18:04:50.297Z,53.36
2023-05-19T18:07:21.423Z,53.44
2023-05-19T18:09:51.480Z,53.53
2023-05-19T18:12:21.588Z,53.52
2023-05-19T18:14:52.076Z,53.57
2023-05-19T18:17:22.133Z,53.69
2023-05-19T18:19:52.119Z,53.73
2023-05-19T18:22:22.335Z,53.87
2023-05-19T18:27:57.409Z,53.94
2023-05-19T18:30:28.622Z,54.13
2023-05-19T18:33:02.078Z,54.30
2023-05-19T18:35:32.654Z,54.47
2023-05-19T18:38:02.715Z,54.61
2023-05-19T18:40:33.305Z,54.96
2023-05-19T18:43:03.552Z,55.07
2023-05-19T18:45:33.559Z,55.31
2023-05-19T18:48:04.092Z,55.56
2023-05-19T18:50:34.340Z,55.57
2023-05-19T18:53:04.475Z,55.81
2023-05-19T18:55:37.069Z,55.87
2023-05-19T18:58:08.223Z,56.09
2023-05-19T19:00:38.288Z,56.21
2023-05-19T19:03:10.436Z,56.61
2023-05-19T19:05:41.031Z,57.52
2023-05-19T19:08:11.155Z,57.89
2023-05-19T19:10:42.555Z,58.12
2023-05-19T19:13:12.577Z,58.46
2023-05-19T19:15:42.552Z,57.70
2023-05-19T19:18:12.775Z,57.83
2023-05-19T19:20:43.517Z,57.87
2023-05-19T19:23:13.599Z,58.05
2023-05-19T19:25:43.532Z,58.11
2023-05-19T19:28:13.549Z,58.14
2023-05-19T19:30:43.455Z,58.42
2023-05-19T19:33:13.444Z,58.51
2023-05-19T19:35:43.379Z,58.65
2023-05-19T19:38:13.273Z,58.86
2023-05-19T19:40:43.310Z,58.84
2023-05-19T19:43:13.238Z,58.81
2023-05-19T19:45:43.197Z,58.98
2023-05-19T19:48:13.518Z,59.27
2023-05-19T19:50:43.516Z,59.60
2023-05-19T19:53:13.575Z,59.33
2023-05-19T19:55:43.506Z,59.29
2023-05-19T19:58:13.396Z,59.42
2023-05-19T20:00:43.482Z,59.57
2023-05-19T20:03:13.852Z,59.75
2023-05-19T20:05:44.035Z,59.66
2023-05-19T20:18:55.771Z,60.63
2023-05-19T20:21:25.823Z,60.53
2023-05-19T20:23:56.158Z,61.09
2023-05-19T20:26:27.235Z,60.80
2023-05-19T20:28:57.356Z,60.94
2023-05-19T20:31:27.643Z,60.97
2023-05-19T20:34:03.436Z,60.36
2023-05-19T20:36:33.511Z,53.93
2023-05-19T20:39:03.838Z,52.56
2023-05-19T20:41:34.683Z,53.92
2023-05-19T20:44:04.894Z,55.05
2023-05-19T20:46:35.184Z,56.05
2023-05-19T20:49:05.185Z,56.74
2023-05-19T20:51:37.195Z,57.51
2023-05-19T20:54:07.546Z,57.78
2023-05-19T20:56:37.771Z,58.17
2023-05-19T20:59:12.392Z,58.49
2023-05-19T21:01:42.441Z,58.67
2023-05-19T21:04:12.564Z,58.79
2023-05-19T21:06:43.027Z,58.96
2023-05-19T21:09:14.696Z,59.08
2023-05-19T21:11:45.982Z,59.31
2023-05-19T21:14:16.743Z,59.34
2023-05-19T21:16:48.795Z,59.53
2023-05-19T21:19:20.730Z,59.84
2023-05-19T21:21:51.032Z,59.81
2023-05-19T21:24:21.184Z,59.95
2023-05-19T21:26:51.494Z,60.09
2023-05-19T21:29:21.689Z,60.18
2023-05-19T21:31:56.122Z,60.32
2023-05-19T21:34:26.155Z,60.36
2023-05-19T21:36:56.689Z,60.48
2023-05-19T21:39:26.899Z,60.55
2023-05-19T21:41:56.927Z,60.77
2023-05-19T21:44:27.692Z,61.57
2023-05-19T21:46:58.090Z,62.20
2023-05-19T21:49:28.845Z,62.45
2023-05-19T21:51:58.959Z,62.35
2023-05-19T21:54:28.912Z,62.74
2023-05-19T21:56:58.801Z,62.35
2023-05-19T21:59:29.001Z,62.30
2023-05-19T22:01:59.864Z,62.48
2023-05-19T22:04:32.836Z,62.32
2023-05-19T22:07:02.968Z,62.39
2023-05-19T22:09:33.455Z,62.40
2023-05-19T22:12:03.430Z,62.38
2023-05-19T22:14:33.679Z,62.35
2023-05-19T22:17:03.765Z,62.46
2023-05-19T22:19:33.960Z,62.46
2023-05-19T22:22:12.963Z,62.39
2023-05-19T22:24:44.613Z,62.48
2023-05-19T22:27:15.008Z,62.33
2023-05-19T22:29:45.442Z,62.34
2023-05-19T22:32:18.036Z,62.21
2023-05-19T22:34:48.495Z,62.24
2023-05-19T22:37:19.046Z,62.28
2023-05-19T22:39:49.875Z,62.29
2023-05-19T22:42:20.120Z,62.39
2023-05-19T22:44:50.233Z,62.59
2023-05-19T22:47:20.455Z,62.93
2023-05-19T22:49:51.133Z,62.84
2023-05-19T22:52:21.255Z,62.91
2023-05-19T22:54:51.379Z,62.34
2023-05-19T22:57:21.418Z,56.25
2023-05-19T22:59:51.584Z,54.69
2023-05-19T23:02:21.535Z,55.96
2023-05-19T23:04:51.703Z,57.21
2023-05-19T23:07:22.145Z,58.30
2023-05-19T23:09:52.264Z,59.17
2023-05-19T23:12:22.344Z,59.65
2023-05-19T23:14:52.563Z,60.25
2023-05-19T23:17:22.747Z,60.65
2023-05-19T23:19:52.879Z,61.02
2023-05-19T23:22:22.897Z,61.20
2023-05-19T23:24:53.039Z,61.45
2023-05-19T23:27:23.222Z,61.85
2023-05-19T23:29:53.600Z,62.02
2023-05-19T23:32:23.612Z,62.16
2023-05-19T23:34:53.864Z,62.26
2023-05-19T23:37:26.115Z,62.67
2023-05-19T23:39:56.372Z,62.95
2023-05-19T23:42:26.507Z,62.93
2023-05-19T23:44:56.933Z,63.06
2023-05-19T23:47:26.949Z,63.18
2023-05-19T23:49:57.063Z,63.29
2023-05-19T23:52:26.933Z,63.40
2023-05-19T23:54:57.055Z,62.65
2023-05-19T23:57:27.168Z,56.49
2023-05-19T23:59:58.299Z,54.99
